Wilson Maas — 8PSZ — position and weather

sailwx.info

Track history (hours):
 
Tides and Currents Weather Stations Pressure Air Temp Water Temp Dewpoint Dewpoint Depression Visibility Wind Speed Wind Dir Waves Ship Positions

Wilson Maas

Last reported at 2017-Jan-16 05:32 UTC. Time now 2017-Jan-23 12:48 UTC.
Position N 66°15' E 012°30'.

Length 78 m; draft 4 m.

Type: Cargo ship. MMSI: 314217000.

Date/timePositionNaut miles runAvg speedWind from/ knotsBaromVisibWave heightAir tempDewpointWater temp
2017-Jan-16 05:32N 66°15' E 012°30'8 8.0
2017-Jan-16 04:33N 66°17' E 012°11'10 9.6
2017-Jan-16 03:32N 66°15' E 011°47'164 7.1
2017-Jan-15 04:33N 63°45' E 009°14'7 7.5
2017-Jan-15 03:33N 63°37' E 009°16'7 7.2
2017-Jan-15 02:33N 63°31' E 009°09'34 8.5
2017-Jan-14 22:33N 63°14' E 008°02'9 9.3
2017-Jan-14 21:33N 63°14' E 007°41'9 8.9
2017-Jan-14 20:33N 63°13' E 007°22'9 8.9
2017-Jan-14 19:32N 63°10' E 007°03'  
2017-Jan-11 05:13N 59°51' E 005°33'710.7
2017-Jan-11 04:33N 59°44' E 005°30'1411.7
2017-Jan-11 03:21N 59°33' E 005°13'2010.4
2017-Jan-11 01:28N 59°14' E 005°21'8 9.2
2017-Jan-11 00:33N 59°07' E 005°29'10 9.7
2017-Jan-10 23:33N 59°02' E 005°45'10 9.8
2017-Jan-10 22:33N 58°52' E 005°45'1 0.8
2017-Jan-10 21:32N 58°51' E 005°45'2 1.6
2017-Jan-10 20:34N 58°53' E 005°45'9 9.1
2017-Jan-10 19:33N 59°02' E 005°45'7 7.0
2017-Jan-10 18:33N 58°58' E 005°33'1010.0
2017-Jan-10 17:33N 58°49' E 005°26'10 9.7
2017-Jan-10 16:34N 58°39' E 005°27'1110.4
2017-Jan-10 15:33N 58°29' E 005°32'1110.8
2017-Jan-10 14:32N 58°20' E 005°43'13 9.4
2017-Jan-10 13:08N 58°12' E 006°04'5 9.3
2017-Jan-10 12:33N 58°10' E 006°13'10 9.6
2017-Jan-10 11:31N 58°04' E 006°28'8 8.7
2017-Jan-10 10:33N 57°60' E 006°42'10 9.7
2017-Jan-10 09:33N 57°55' E 006°58'10 9.0
2017-Jan-10 08:27N 57°55' E 007°17'37 6.3
2017-Jan-10 02:33N 58°06' E 008°24'5 4.6
2017-Jan-10 01:33N 58°09' E 008°31'5 4.6
2017-Jan-10 00:33N 58°11' E 008°38'5 4.8
2017-Jan-09 23:33N 58°15' E 008°45'5 5.0
2017-Jan-09 22:33N 58°18' E 008°52'6 5.6
2017-Jan-09 21:33N 58°22' E 008°60'23 6.6
2017-Jan-09 18:03N 58°37' E 009°32'4 9.0
2017-Jan-09 17:34N 58°40' E 009°38'9 9.4
2017-Jan-09 16:33N 58°46' E 009°53'10 9.8
2017-Jan-09 15:33N 58°51' E 010°09'10 9.7
2017-Jan-09 14:33N 58°56' E 010°25'9 9.2
2017-Jan-09 13:33N 59°03' E 010°36'9 9.5
2017-Jan-09 12:33N 59°13' E 010°37'10 9.9
2017-Jan-09 11:33N 59°23' E 010°34'3 3.0
2017-Jan-09 10:32N 59°25' E 010°30'0 0.0
2017-Jan-09 09:29N 59°25' E 010°30'0 0.0
2017-Jan-09 08:32N 59°25' E 010°30'0 0.0
2017-Jan-09 07:32N 59°25' E 010°30'0 0.0
2017-Jan-09 06:32N 59°25' E 010°30'0 0.0
2017-Jan-09 05:32N 59°25' E 010°30'0 0.0
2017-Jan-09 04:32N 59°25' E 010°30'0 0.0
2017-Jan-09 03:29N 59°25' E 010°30'0 0.0
2017-Jan-09 02:32N 59°25' E 010°30'0 0.0
2017-Jan-09 01:32N 59°25' E 010°30'0 0.0
2017-Jan-09 00:32N 59°25' E 010°30'0 0.0
2017-Jan-08 23:32N 59°25' E 010°30'0 0.0
2017-Jan-08 22:32N 59°25' E 010°30'0 0.0
2017-Jan-08 21:32N 59°25' E 010°30'0 0.0
2017-Jan-08 20:32N 59°25' E 010°30'0 0.0
2017-Jan-08 19:32N 59°25' E 010°30'0 0.0
2017-Jan-08 18:32N 59°25' E 010°30'0 0.0
2017-Jan-08 17:32N 59°25' E 010°30'0 0.0
2017-Jan-08 16:32N 59°25' E 010°30'0 0.0
2017-Jan-08 15:32N 59°25' E 010°30'0 0.0
2017-Jan-08 14:32N 59°25' E 010°30'0 0.0
2017-Jan-08 13:32N 59°25' E 010°30'0 0.0
2017-Jan-08 12:32N 59°25' E 010°30'0 0.0
2017-Jan-08 11:32N 59°25' E 010°30'0 0.0
2017-Jan-08 10:32N 59°25' E 010°30'0 0.0
2017-Jan-08 09:32N 59°25' E 010°30'0 0.0
2017-Jan-08 08:32N 59°25' E 010°30'0 0.0
2017-Jan-08 07:32N 59°25' E 010°30'0 0.0
2017-Jan-08 06:32N 59°25' E 010°30'0 0.0
2017-Jan-08 05:32N 59°25' E 010°30'0 0.0
2017-Jan-08 04:32N 59°25' E 010°30'0 0.0
2017-Jan-08 03:32N 59°25' E 010°30'0 0.0
2017-Jan-08 02:32N 59°25' E 010°30'0 0.0
2017-Jan-08 01:32N 59°25' E 010°30'0 0.0
2017-Jan-08 00:32N 59°25' E 010°30'0 0.0
2017-Jan-07 23:32N 59°25' E 010°30'0 0.0
2017-Jan-07 22:32N 59°25' E 010°30'0 0.0
2017-Jan-07 21:32N 59°25' E 010°30'0 0.0
2017-Jan-07 20:32N 59°25' E 010°30'5 4.8
2017-Jan-07 19:33N 59°21' E 010°36'1111.3
2017-Jan-07 18:33N 59°10' E 010°40'9 8.7
2017-Jan-07 17:33N 59°02' E 010°34'6 6.0
2017-Jan-07 16:33N 58°56' E 010°30'6 6.0
2017-Jan-07 15:33N 58°52' E 010°22'6 6.3
2017-Jan-07 14:33N 58°48' E 010°14'7 7.1
2017-Jan-07 13:33N 58°42' E 010°04'  
Track history (hours):
 
Tides and Currents Weather Stations Pressure Air Temp Water Temp Dewpoint Dewpoint Depression Visibility Wind Speed Wind Dir Waves Ship Positions

Wilson Maas

Last reported at 2017-Jan-16 05:32 UTC. Time now 2017-Jan-23 12:48 UTC.
Position N 66°15' E 012°30'.

Length 78 m; draft 4 m.

Type: Cargo ship. MMSI: 314217000.

Date/timePositionNaut miles runAvg speedWind from/ knotsBaromVisibWave heightAir tempDewpointWater temp
2017-Jan-16 05:32N 66°15' E 012°30'8 8.0
2017-Jan-16 04:33N 66°17' E 012°11'10 9.6
2017-Jan-16 03:32N 66°15' E 011°47'164 7.1
2017-Jan-15 04:33N 63°45' E 009°14'7 7.5
2017-Jan-15 03:33N 63°37' E 009°16'7 7.2
2017-Jan-15 02:33N 63°31' E 009°09'34 8.5
2017-Jan-14 22:33N 63°14' E 008°02'9 9.3
2017-Jan-14 21:33N 63°14' E 007°41'9 8.9
2017-Jan-14 20:33N 63°13' E 007°22'9 8.9
2017-Jan-14 19:32N 63°10' E 007°03'  
2017-Jan-11 05:13N 59°51' E 005°33'710.7
2017-Jan-11 04:33N 59°44' E 005°30'1411.7
2017-Jan-11 03:21N 59°33' E 005°13'2010.4
2017-Jan-11 01:28N 59°14' E 005°21'8 9.2
2017-Jan-11 00:33N 59°07' E 005°29'10 9.7
2017-Jan-10 23:33N 59°02' E 005°45'10 9.8
2017-Jan-10 22:33N 58°52' E 005°45'1 0.8
2017-Jan-10 21:32N 58°51' E 005°45'2 1.6
2017-Jan-10 20:34N 58°53' E 005°45'9 9.1
2017-Jan-10 19:33N 59°02' E 005°45'7 7.0
2017-Jan-10 18:33N 58°58' E 005°33'1010.0
2017-Jan-10 17:33N 58°49' E 005°26'10 9.7
2017-Jan-10 16:34N 58°39' E 005°27'1110.4
2017-Jan-10 15:33N 58°29' E 005°32'1110.8
2017-Jan-10 14:32N 58°20' E 005°43'13 9.4
2017-Jan-10 13:08N 58°12' E 006°04'5 9.3
2017-Jan-10 12:33N 58°10' E 006°13'10 9.6
2017-Jan-10 11:31N 58°04' E 006°28'8 8.7
2017-Jan-10 10:33N 57°60' E 006°42'10 9.7
2017-Jan-10 09:33N 57°55' E 006°58'10 9.0
2017-Jan-10 08:27N 57°55' E 007°17'37 6.3
2017-Jan-10 02:33N 58°06' E 008°24'5 4.6
2017-Jan-10 01:33N 58°09' E 008°31'5 4.6
2017-Jan-10 00:33N 58°11' E 008°38'5 4.8
2017-Jan-09 23:33N 58°15' E 008°45'5 5.0
2017-Jan-09 22:33N 58°18' E 008°52'6 5.6
2017-Jan-09 21:33N 58°22' E 008°60'23 6.6
2017-Jan-09 18:03N 58°37' E 009°32'4 9.0
2017-Jan-09 17:34N 58°40' E 009°38'9 9.4
2017-Jan-09 16:33N 58°46' E 009°53'10 9.8
2017-Jan-09 15:33N 58°51' E 010°09'10 9.7
2017-Jan-09 14:33N 58°56' E 010°25'9 9.2
2017-Jan-09 13:33N 59°03' E 010°36'9 9.5
2017-Jan-09 12:33N 59°13' E 010°37'10 9.9
2017-Jan-09 11:33N 59°23' E 010°34'3 3.0
2017-Jan-09 10:32N 59°25' E 010°30'0 0.0
2017-Jan-09 09:29N 59°25' E 010°30'0 0.0
2017-Jan-09 08:32N 59°25' E 010°30'0 0.0
2017-Jan-09 07:32N 59°25' E 010°30'0 0.0
2017-Jan-09 06:32N 59°25' E 010°30'0 0.0
2017-Jan-09 05:32N 59°25' E 010°30'0 0.0
2017-Jan-09 04:32N 59°25' E 010°30'0 0.0
2017-Jan-09 03:29N 59°25' E 010°30'0 0.0
2017-Jan-09 02:32N 59°25' E 010°30'0 0.0
2017-Jan-09 01:32N 59°25' E 010°30'0 0.0
2017-Jan-09 00:32N 59°25' E 010°30'0 0.0
2017-Jan-08 23:32N 59°25' E 010°30'0 0.0
2017-Jan-08 22:32N 59°25' E 010°30'0 0.0
2017-Jan-08 21:32N 59°25' E 010°30'0 0.0
2017-Jan-08 20:32N 59°25' E 010°30'0 0.0
2017-Jan-08 19:32N 59°25' E 010°30'0 0.0
2017-Jan-08 18:32N 59°25' E 010°30'0 0.0
2017-Jan-08 17:32N 59°25' E 010°30'0 0.0
2017-Jan-08 16:32N 59°25' E 010°30'0 0.0
2017-Jan-08 15:32N 59°25' E 010°30'0 0.0
2017-Jan-08 14:32N 59°25' E 010°30'0 0.0
2017-Jan-08 13:32N 59°25' E 010°30'0 0.0
2017-Jan-08 12:32N 59°25' E 010°30'0 0.0
2017-Jan-08 11:32N 59°25' E 010°30'0 0.0
2017-Jan-08 10:32N 59°25' E 010°30'0 0.0
2017-Jan-08 09:32N 59°25' E 010°30'0 0.0
2017-Jan-08 08:32N 59°25' E 010°30'0 0.0
2017-Jan-08 07:32N 59°25' E 010°30'0 0.0
2017-Jan-08 06:32N 59°25' E 010°30'0 0.0
2017-Jan-08 05:32N 59°25' E 010°30'0 0.0
2017-Jan-08 04:32N 59°25' E 010°30'0 0.0
2017-Jan-08 03:32N 59°25' E 010°30'0 0.0
2017-Jan-08 02:32N 59°25' E 010°30'0 0.0
2017-Jan-08 01:32N 59°25' E 010°30'0 0.0
2017-Jan-08 00:32N 59°25' E 010°30'0 0.0
2017-Jan-07 23:32N 59°25' E 010°30'0 0.0
2017-Jan-07 22:32N 59°25' E 010°30'0 0.0
2017-Jan-07 21:32N 59°25' E 010°30'0 0.0
2017-Jan-07 20:32N 59°25' E 010°30'5 4.8
2017-Jan-07 19:33N 59°21' E 010°36'1111.3
2017-Jan-07 18:33N 59°10' E 010°40'9 8.7
2017-Jan-07 17:33N 59°02' E 010°34'6 6.0
2017-Jan-07 16:33N 58°56' E 010°30'6 6.0
2017-Jan-07 15:33N 58°52' E 010°22'6 6.3
2017-Jan-07 14:33N 58°48' E 010°14'7 7.1
2017-Jan-07 13:33N 58°42' E 010°04'  

Dump ship's entire track history